sensor_id;sensor_type;location;lat;lon;timestamp;P1;durP1;ratioP1;P2;durP2;ratioP2
3949;SDS011;53057;50.988;6.314;2024-03-08T00:00:06;54.97;;;33.80;;
3949;SDS011;53057;50.988;6.314;2024-03-08T00:02:39;61.30;;;34.20;;
3949;SDS011;53057;50.988;6.314;2024-03-08T00:05:06;53.70;;;34.80;;
3949;SDS011;53057;50.988;6.314;2024-03-08T00:07:35;49.27;;;35.00;;
3949;SDS011;53057;50.988;6.314;2024-03-08T00:10:06;53.83;;;36.10;;
3949;SDS011;53057;50.988;6.314;2024-03-08T00:12:34;57.27;;;34.10;;
3949;SDS011;53057;50.988;6.314;2024-03-08T00:15:01;51.43;;;34.80;;
3949;SDS011;53057;50.988;6.314;2024-03-08T00:17:28;51.93;;;36.73;;
3949;SDS011;53057;50.988;6.314;2024-03-08T00:19:55;55.17;;;36.70;;
3949;SDS011;53057;50.988;6.314;2024-03-08T00:22:22;51.03;;;35.70;;
3949;SDS011;53057;50.988;6.314;2024-03-08T00:24:50;57.37;;;36.33;;
3949;SDS011;53057;50.988;6.314;2024-03-08T00:27:17;59.57;;;35.27;;
3949;SDS011;53057;50.988;6.314;2024-03-08T00:29:48;61.10;;;36.53;;
3949;SDS011;53057;50.988;6.314;2024-03-08T00:32:15;54.40;;;36.00;;
3949;SDS011;53057;50.988;6.314;2024-03-08T00:34:44;55.10;;;35.43;;
3949;SDS011;53057;50.988;6.314;2024-03-08T00:37:11;53.43;;;35.30;;
3949;SDS011;53057;50.988;6.314;2024-03-08T00:39:38;58.93;;;37.20;;
3949;SDS011;53057;50.988;6.314;2024-03-08T00:42:05;54.40;;;36.47;;
3949;SDS011;53057;50.988;6.314;2024-03-08T00:44:32;60.27;;;34.03;;
3949;SDS011;53057;50.988;6.314;2024-03-08T00:47:00;59.30;;;35.70;;
3949;SDS011;53057;50.988;6.314;2024-03-08T00:49:29;56.57;;;36.27;;
3949;SDS011;53057;50.988;6.314;2024-03-08T00:51:57;59.60;;;36.40;;
3949;SDS011;53057;50.988;6.314;2024-03-08T00:54:24;59.93;;;34.40;;
3949;SDS011;53057;50.988;6.314;2024-03-08T00:56:51;55.30;;;36.20;;
3949;SDS011;53057;50.988;6.314;2024-03-08T00:59:18;55.80;;;32.00;;
3949;SDS011;53057;50.988;6.314;2024-03-08T01:01:46;56.63;;;35.40;;
3949;SDS011;53057;50.988;6.314;2024-03-08T01:04:13;55.33;;;33.80;;
3949;SDS011;53057;50.988;6.314;2024-03-08T01:06:40;65.13;;;37.30;;
3949;SDS011;53057;50.988;6.314;2024-03-08T01:09:06;63.80;;;34.20;;
3949;SDS011;53057;50.988;6.314;2024-03-08T01:11:34;57.17;;;35.00;;
3949;SDS011;53057;50.988;6.314;2024-03-08T01:14:01;63.13;;;35.80;;
3949;SDS011;53057;50.988;6.314;2024-03-08T01:16:29;50.10;;;28.50;;
3949;SDS011;53057;50.988;6.314;2024-03-08T01:18:56;43.37;;;26.70;;
3949;SDS011;53057;50.988;6.314;2024-03-08T01:21:23;54.80;;;34.47;;
3949;SDS011;53057;50.988;6.314;2024-03-08T01:23:51;55.00;;;30.57;;
3949;SDS011;53057;50.988;6.314;2024-03-08T01:26:18;51.17;;;31.40;;
3949;SDS011;53057;50.988;6.314;2024-03-08T01:28:45;54.83;;;34.60;;
3949;SDS011;53057;50.988;6.314;2024-03-08T01:31:13;58.50;;;36.33;;
3949;SDS011;53057;50.988;6.314;2024-03-08T01:33:40;63.60;;;33.10;;
3949;SDS011;53057;50.988;6.314;2024-03-08T01:36:08;48.10;;;28.83;;
3949;SDS011;53057;50.988;6.314;2024-03-08T01:38:35;57.37;;;33.20;;
3949;SDS011;53057;50.988;6.314;2024-03-08T01:41:03;45.17;;;24.13;;
3949;SDS011;53057;50.988;6.314;2024-03-08T01:43:30;53.40;;;33.07;;
3949;SDS011;53057;50.988;6.314;2024-03-08T01:45:58;52.17;;;32.90;;
3949;SDS011;53057;50.988;6.314;2024-03-08T01:48:31;52.60;;;29.93;;
3949;SDS011;53057;50.988;6.314;2024-03-08T01:50:59;51.10;;;33.87;;
3949;SDS011;53057;50.988;6.314;2024-03-08T01:53:27;53.03;;;31.33;;
3949;SDS011;53057;50.988;6.314;2024-03-08T01:55:58;45.83;;;29.53;;
3949;SDS011;53057;50.988;6.314;2024-03-08T01:58:27;51.23;;;29.07;;
3949;SDS011;53057;50.988;6.314;2024-03-08T02:00:56;46.43;;;27.47;;
3949;SDS011;53057;50.988;6.314;2024-03-08T02:03:24;53.60;;;33.80;;
3949;SDS011;53057;50.988;6.314;2024-03-08T02:05:52;54.93;;;30.60;;
3949;SDS011;53057;50.988;6.314;2024-03-08T02:08:20;49.10;;;27.03;;
3949;SDS011;53057;50.988;6.314;2024-03-08T02:10:49;53.23;;;31.63;;
3949;SDS011;53057;50.988;6.314;2024-03-08T02:13:17;43.20;;;23.10;;
3949;SDS011;53057;50.988;6.314;2024-03-08T02:15:52;49.33;;;26.10;;
3949;SDS011;53057;50.988;6.314;2024-03-08T02:18:22;46.07;;;27.60;;
3949;SDS011;53057;50.988;6.314;2024-03-08T02:20:51;54.57;;;32.23;;
3949;SDS011;53057;50.988;6.314;2024-03-08T02:23:21;46.53;;;23.07;;
3949;SDS011;53057;50.988;6.314;2024-03-08T02:25:50;38.37;;;21.20;;
3949;SDS011;53057;50.988;6.314;2024-03-08T02:28:18;58.80;;;28.77;;
3949;SDS011;53057;50.988;6.314;2024-03-08T02:30:47;43.53;;;25.43;;
3949;SDS011;53057;50.988;6.314;2024-03-08T02:33:14;49.93;;;28.80;;
3949;SDS011;53057;50.988;6.314;2024-03-08T02:35:44;50.43;;;29.47;;
3949;SDS011;53057;50.988;6.314;2024-03-08T02:38:15;43.53;;;22.07;;
3949;SDS011;53057;50.988;6.314;2024-03-08T02:40:46;58.30;;;34.70;;
3949;SDS011;53057;50.988;6.314;2024-03-08T02:43:15;51.13;;;32.20;;
3949;SDS011;53057;50.988;6.314;2024-03-08T02:45:42;48.90;;;29.53;;
3949;SDS011;53057;50.988;6.314;2024-03-08T02:48:12;55.47;;;34.10;;
3949;SDS011;53057;50.988;6.314;2024-03-08T02:50:41;56.97;;;34.20;;
3949;SDS011;53057;50.988;6.314;2024-03-08T02:53:09;55.37;;;33.20;;
3949;SDS011;53057;50.988;6.314;2024-03-08T02:55:37;57.47;;;34.60;;
3949;SDS011;53057;50.988;6.314;2024-03-08T02:58:05;72.80;;;38.23;;
3949;SDS011;53057;50.988;6.314;2024-03-08T03:00:36;58.70;;;35.90;;
3949;SDS011;53057;50.988;6.314;2024-03-08T03:03:03;60.03;;;33.40;;
3949;SDS011;53057;50.988;6.314;2024-03-08T03:05:30;57.90;;;35.70;;
3949;SDS011;53057;50.988;6.314;2024-03-08T03:07:57;64.73;;;33.00;;
3949;SDS011;53057;50.988;6.314;2024-03-08T03:10:27;59.60;;;31.30;;
3949;SDS011;53057;50.988;6.314;2024-03-08T03:12:54;56.43;;;32.40;;
3949;SDS011;53057;50.988;6.314;2024-03-08T03:15:21;61.97;;;33.30;;
3949;SDS011;53057;50.988;6.314;2024-03-08T03:17:53;58.73;;;31.00;;
3949;SDS011;53057;50.988;6.314;2024-03-08T03:20:20;53.90;;;29.73;;
3949;SDS011;53057;50.988;6.314;2024-03-08T03:22:53;55.17;;;29.33;;
3949;SDS011;53057;50.988;6.314;2024-03-08T03:25:21;59.60;;;29.63;;
3949;SDS011;53057;50.988;6.314;2024-03-08T03:27:52;59.30;;;33.67;;
3949;SDS011;53057;50.988;6.314;2024-03-08T03:30:24;66.90;;;33.70;;
3949;SDS011;53057;50.988;6.314;2024-03-08T03:32:53;65.33;;;35.63;;
3949;SDS011;53057;50.988;6.314;2024-03-08T03:35:21;58.27;;;34.07;;
3949;SDS011;53057;50.988;6.314;2024-03-08T03:37:49;66.77;;;33.87;;
3949;SDS011;53057;50.988;6.314;2024-03-08T03:40:33;62.90;;;35.43;;
3949;SDS011;53057;50.988;6.314;2024-03-08T03:43:01;47.27;;;25.73;;
3949;SDS011;53057;50.988;6.314;2024-03-08T03:45:29;51.50;;;25.17;;
3949;SDS011;53057;50.988;6.314;2024-03-08T03:47:56;57.20;;;31.10;;
3949;SDS011;53057;50.988;6.314;2024-03-08T03:50:23;54.93;;;28.97;;
3949;SDS011;53057;50.988;6.314;2024-03-08T03:52:50;53.90;;;30.77;;
3949;SDS011;53057;50.988;6.314;2024-03-08T03:55:17;61.67;;;33.53;;
3949;SDS011;53057;50.988;6.314;2024-03-08T03:57:44;59.67;;;31.17;;
3949;SDS011;53057;50.988;6.314;2024-03-08T04:00:12;50.47;;;29.13;;
3949;SDS011;53057;50.988;6.314;2024-03-08T04:02:42;63.07;;;34.53;;
3949;SDS011;53057;50.988;6.314;2024-03-08T04:05:09;62.17;;;34.77;;
3949;SDS011;53057;50.988;6.314;2024-03-08T04:07:37;52.50;;;28.43;;
3949;SDS011;53057;50.988;6.314;2024-03-08T04:10:04;51.73;;;28.67;;
3949;SDS011;53057;50.988;6.314;2024-03-08T04:12:33;47.93;;;26.80;;
3949;SDS011;53057;50.988;6.314;2024-03-08T04:15:00;47.40;;;24.43;;
3949;SDS011;53057;50.988;6.314;2024-03-08T04:17:29;53.93;;;27.50;;
3949;SDS011;53057;50.988;6.314;2024-03-08T04:19:57;44.40;;;23.60;;
3949;SDS011;53057;50.988;6.314;2024-03-08T04:22:23;47.47;;;23.30;;
3949;SDS011;53057;50.988;6.314;2024-03-08T04:24:50;57.13;;;27.50;;
3949;SDS011;53057;50.988;6.314;2024-03-08T04:27:18;53.90;;;27.87;;
3949;SDS011;53057;50.988;6.314;2024-03-08T04:29:45;64.73;;;30.83;;
3949;SDS011;53057;50.988;6.314;2024-03-08T04:32:13;47.60;;;26.03;;
3949;SDS011;53057;50.988;6.314;2024-03-08T04:34:40;58.67;;;29.90;;
3949;SDS011;53057;50.988;6.314;2024-03-08T04:37:11;45.60;;;22.03;;
3949;SDS011;53057;50.988;6.314;2024-03-08T04:39:40;50.43;;;25.07;;
3949;SDS011;53057;50.988;6.314;2024-03-08T04:42:08;42.97;;;20.43;;
3949;SDS011;53057;50.988;6.314;2024-03-08T04:44:37;49.47;;;26.73;;
3949;SDS011;53057;50.988;6.314;2024-03-08T04:47:08;46.90;;;23.30;;
3949;SDS011;53057;50.988;6.314;2024-03-08T04:49:36;37.53;;;23.10;;
3949;SDS011;53057;50.988;6.314;2024-03-08T04:52:04;31.33;;;14.63;;
3949;SDS011;53057;50.988;6.314;2024-03-08T04:54:32;51.83;;;27.90;;
3949;SDS011;53057;50.988;6.314;2024-03-08T04:56:59;53.43;;;28.53;;
3949;SDS011;53057;50.988;6.314;2024-03-08T04:59:30;52.03;;;26.40;;
3949;SDS011;53057;50.988;6.314;2024-03-08T05:01:58;42.13;;;25.20;;
3949;SDS011;53057;50.988;6.314;2024-03-08T05:04:25;65.17;;;31.60;;
3949;SDS011;53057;50.988;6.314;2024-03-08T05:06:53;52.53;;;21.93;;
3949;SDS011;53057;50.988;6.314;2024-03-08T05:09:20;53.50;;;27.23;;
3949;SDS011;53057;50.988;6.314;2024-03-08T05:11:47;61.47;;;28.63;;
3949;SDS011;53057;50.988;6.314;2024-03-08T05:14:15;48.83;;;28.23;;
3949;SDS011;53057;50.988;6.314;2024-03-08T05:16:47;58.67;;;32.60;;
3949;SDS011;53057;50.988;6.314;2024-03-08T05:19:19;51.80;;;28.73;;
3949;SDS011;53057;50.988;6.314;2024-03-08T05:21:47;52.33;;;27.13;;
3949;SDS011;53057;50.988;6.314;2024-03-08T05:24:14;59.33;;;28.77;;
3949;SDS011;53057;50.988;6.314;2024-03-08T05:26:43;48.67;;;24.13;;
3949;SDS011;53057;50.988;6.314;2024-03-08T05:29:11;50.70;;;28.10;;
3949;SDS011;53057;50.988;6.314;2024-03-08T05:31:46;57.23;;;30.33;;
3949;SDS011;53057;50.988;6.314;2024-03-08T05:34:16;52.03;;;29.40;;
3949;SDS011;53057;50.988;6.314;2024-03-08T05:36:43;61.43;;;35.27;;
3949;SDS011;53057;50.988;6.314;2024-03-08T05:39:12;62.17;;;27.10;;
3949;SDS011;53057;50.988;6.314;2024-03-08T05:41:41;60.30;;;33.23;;
3949;SDS011;53057;50.988;6.314;2024-03-08T05:44:09;48.17;;;28.17;;
3949;SDS011;53057;50.988;6.314;2024-03-08T05:46:37;59.63;;;30.03;;
3949;SDS011;53057;50.988;6.314;2024-03-08T05:49:05;59.13;;;33.47;;
3949;SDS011;53057;50.988;6.314;2024-03-08T05:51:35;50.67;;;21.43;;
3949;SDS011;53057;50.988;6.314;2024-03-08T05:54:03;59.43;;;34.07;;
3949;SDS011;53057;50.988;6.314;2024-03-08T05:56:32;48.10;;;23.77;;
3949;SDS011;53057;50.988;6.314;2024-03-08T05:59:02;61.73;;;32.83;;
3949;SDS011;53057;50.988;6.314;2024-03-08T06:01:30;48.80;;;27.30;;
3949;SDS011;53057;50.988;6.314;2024-03-08T06:04:03;51.40;;;28.17;;
3949;SDS011;53057;50.988;6.314;2024-03-08T06:06:30;53.27;;;24.10;;
3949;SDS011;53057;50.988;6.314;2024-03-08T06:08:57;68.57;;;33.60;;
3949;SDS011;53057;50.988;6.314;2024-03-08T06:11:26;51.30;;;28.50;;
3949;SDS011;53057;50.988;6.314;2024-03-08T06:13:55;62.70;;;34.63;;
3949;SDS011;53057;50.988;6.314;2024-03-08T06:16:27;43.40;;;22.00;;
3949;SDS011;53057;50.988;6.314;2024-03-08T06:18:57;57.33;;;30.07;;
3949;SDS011;53057;50.988;6.314;2024-03-08T06:21:24;55.73;;;28.77;;
3949;SDS011;53057;50.988;6.314;2024-03-08T06:23:55;22.67;;;12.80;;
3949;SDS011;53057;50.988;6.314;2024-03-08T06:26:25;43.73;;;21.73;;
3949;SDS011;53057;50.988;6.314;2024-03-08T06:28:57;39.50;;;20.40;;
3949;SDS011;53057;50.988;6.314;2024-03-08T06:31:24;49.73;;;24.37;;
3949;SDS011;53057;50.988;6.314;2024-03-08T06:33:52;56.23;;;20.80;;
3949;SDS011;53057;50.988;6.314;2024-03-08T06:36:23;37.93;;;18.20;;
3949;SDS011;53057;50.988;6.314;2024-03-08T06:38:54;34.00;;;18.67;;
3949;SDS011;53057;50.988;6.314;2024-03-08T06:41:21;31.47;;;16.90;;
3949;SDS011;53057;50.988;6.314;2024-03-08T06:43:51;46.90;;;20.67;;
3949;SDS011;53057;50.988;6.314;2024-03-08T06:46:24;39.23;;;21.43;;
3949;SDS011;53057;50.988;6.314;2024-03-08T06:48:52;24.20;;;14.13;;
3949;SDS011;53057;50.988;6.314;2024-03-08T06:51:20;36.90;;;18.90;;
3949;SDS011;53057;50.988;6.314;2024-03-08T06:53:47;40.40;;;17.30;;
3949;SDS011;53057;50.988;6.314;2024-03-08T06:56:16;32.40;;;17.07;;
3949;SDS011;53057;50.988;6.314;2024-03-08T06:58:43;20.67;;;14.20;;
3949;SDS011;53057;50.988;6.314;2024-03-08T07:01:12;33.30;;;11.87;;
3949;SDS011;53057;50.988;6.314;2024-03-08T07:03:42;29.20;;;14.03;;
3949;SDS011;53057;50.988;6.314;2024-03-08T07:06:12;35.37;;;13.23;;
3949;SDS011;53057;50.988;6.314;2024-03-08T07:08:39;35.67;;;16.60;;
3949;SDS011;53057;50.988;6.314;2024-03-08T07:11:07;39.37;;;21.23;;
3949;SDS011;53057;50.988;6.314;2024-03-08T07:13:34;33.77;;;19.20;;
3949;SDS011;53057;50.988;6.314;2024-03-08T07:16:02;34.83;;;17.53;;
3949;SDS011;53057;50.988;6.314;2024-03-08T07:18:29;32.37;;;14.93;;
3949;SDS011;53057;50.988;6.314;2024-03-08T07:20:57;39.23;;;18.10;;
3949;SDS011;53057;50.988;6.314;2024-03-08T07:23:25;39.37;;;16.43;;
3949;SDS011;53057;50.988;6.314;2024-03-08T07:26:15;30.87;;;14.67;;
3949;SDS011;53057;50.988;6.314;2024-03-08T07:28:43;30.47;;;15.80;;
3949;SDS011;53057;50.988;6.314;2024-03-08T07:31:10;41.80;;;19.57;;
3949;SDS011;53057;50.988;6.314;2024-03-08T07:33:40;29.67;;;14.07;;
3949;SDS011;53057;50.988;6.314;2024-03-08T07:36:09;31.77;;;15.97;;
3949;SDS011;53057;50.988;6.314;2024-03-08T07:38:36;30.10;;;16.50;;
3949;SDS011;53057;50.988;6.314;2024-03-08T07:41:03;40.30;;;17.87;;
3949;SDS011;53057;50.988;6.314;2024-03-08T07:43:31;31.40;;;15.27;;
3949;SDS011;53057;50.988;6.314;2024-03-08T07:46:00;32.33;;;19.20;;
3949;SDS011;53057;50.988;6.314;2024-03-08T07:48:27;32.70;;;13.40;;
3949;SDS011;53057;50.988;6.314;2024-03-08T07:50:55;26.13;;;14.37;;
3949;SDS011;53057;50.988;6.314;2024-03-08T07:53:24;36.00;;;16.87;;
3949;SDS011;53057;50.988;6.314;2024-03-08T07:55:52;32.33;;;13.93;;
3949;SDS011;53057;50.988;6.314;2024-03-08T07:58:20;31.67;;;16.10;;
3949;SDS011;53057;50.988;6.314;2024-03-08T08:00:47;23.50;;;12.00;;
3949;SDS011;53057;50.988;6.314;2024-03-08T08:03:15;40.40;;;17.87;;
3949;SDS011;53057;50.988;6.314;2024-03-08T08:05:42;35.23;;;17.07;;
3949;SDS011;53057;50.988;6.314;2024-03-08T08:08:09;38.80;;;18.67;;
3949;SDS011;53057;50.988;6.314;2024-03-08T08:10:38;40.37;;;18.30;;
3949;SDS011;53057;50.988;6.314;2024-03-08T08:13:06;41.23;;;19.83;;
3949;SDS011;53057;50.988;6.314;2024-03-08T08:15:33;46.73;;;19.53;;
3949;SDS011;53057;50.988;6.314;2024-03-08T08:18:03;32.40;;;16.40;;
3949;SDS011;53057;50.988;6.314;2024-03-08T08:20:33;27.67;;;13.97;;
3949;SDS011;53057;50.988;6.314;2024-03-08T08:23:01;28.77;;;14.10;;
3949;SDS011;53057;50.988;6.314;2024-03-08T08:25:28;35.10;;;17.40;;
3949;SDS011;53057;50.988;6.314;2024-03-08T08:27:55;46.93;;;18.63;;
3949;SDS011;53057;50.988;6.314;2024-03-08T08:30:21;40.20;;;18.30;;
3949;SDS011;53057;50.988;6.314;2024-03-08T08:32:48;26.00;;;17.37;;
3949;SDS011;53057;50.988;6.314;2024-03-08T08:35:16;30.17;;;13.50;;
3949;SDS011;53057;50.988;6.314;2024-03-08T08:37:45;53.80;;;19.80;;
3949;SDS011;53057;50.988;6.314;2024-03-08T08:40:12;36.93;;;13.70;;
3949;SDS011;53057;50.988;6.314;2024-03-08T08:42:44;33.40;;;16.20;;
3949;SDS011;53057;50.988;6.314;2024-03-08T08:45:15;35.73;;;14.47;;
3949;SDS011;53057;50.988;6.314;2024-03-08T08:47:51;31.20;;;13.83;;
3949;SDS011;53057;50.988;6.314;2024-03-08T08:50:18;22.40;;;14.90;;
3949;SDS011;53057;50.988;6.314;2024-03-08T08:52:50;26.07;;;14.20;;
3949;SDS011;53057;50.988;6.314;2024-03-08T08:55:17;32.60;;;14.27;;
3949;SDS011;53057;50.988;6.314;2024-03-08T08:57:49;29.87;;;17.50;;
3949;SDS011;53057;50.988;6.314;2024-03-08T09:00:18;30.37;;;13.13;;
3949;SDS011;53057;50.988;6.314;2024-03-08T09:02:46;39.63;;;16.20;;
3949;SDS011;53057;50.988;6.314;2024-03-08T09:05:14;34.33;;;14.23;;
3949;SDS011;53057;50.988;6.314;2024-03-08T09:07:43;33.93;;;15.47;;
3949;SDS011;53057;50.988;6.314;2024-03-08T09:10:14;34.73;;;13.37;;
3949;SDS011;53057;50.988;6.314;2024-03-08T09:12:44;39.53;;;20.37;;
3949;SDS011;53057;50.988;6.314;2024-03-08T09:15:11;43.27;;;17.97;;
3949;SDS011;53057;50.988;6.314;2024-03-08T09:17:39;19.17;;;10.60;;
3949;SDS011;53057;50.988;6.314;2024-03-08T09:20:07;30.83;;;16.67;;
3949;SDS011;53057;50.988;6.314;2024-03-08T09:22:36;30.50;;;15.27;;
3949;SDS011;53057;50.988;6.314;2024-03-08T09:25:03;32.17;;;13.20;;
3949;SDS011;53057;50.988;6.314;2024-03-08T09:27:33;44.40;;;18.13;;
3949;SDS011;53057;50.988;6.314;2024-03-08T09:30:04;33.20;;;20.07;;
3949;SDS011;53057;50.988;6.314;2024-03-08T09:32:32;42.07;;;18.93;;
3949;SDS011;53057;50.988;6.314;2024-03-08T09:35:00;38.13;;;19.20;;
3949;SDS011;53057;50.988;6.314;2024-03-08T09:37:27;30.80;;;16.63;;
3949;SDS011;53057;50.988;6.314;2024-03-08T09:39:55;40.83;;;17.33;;
3949;SDS011;53057;50.988;6.314;2024-03-08T09:42:22;33.40;;;17.63;;
3949;SDS011;53057;50.988;6.314;2024-03-08T09:44:50;30.90;;;15.20;;
3949;SDS011;53057;50.988;6.314;2024-03-08T09:47:17;34.93;;;16.43;;
3949;SDS011;53057;50.988;6.314;2024-03-08T09:49:45;32.33;;;17.13;;
3949;SDS011;53057;50.988;6.314;2024-03-08T09:52:13;45.20;;;18.17;;
3949;SDS011;53057;50.988;6.314;2024-03-08T09:54:41;42.37;;;20.67;;
3949;SDS011;53057;50.988;6.314;2024-03-08T09:57:10;32.77;;;15.03;;
3949;SDS011;53057;50.988;6.314;2024-03-08T09:59:37;31.63;;;18.43;;
3949;SDS011;53057;50.988;6.314;2024-03-08T10:02:05;35.50;;;15.30;;
3949;SDS011;53057;50.988;6.314;2024-03-08T10:04:34;53.33;;;13.47;;
3949;SDS011;53057;50.988;6.314;2024-03-08T10:07:02;31.00;;;16.73;;
3949;SDS011;53057;50.988;6.314;2024-03-08T10:09:29;35.97;;;19.77;;
3949;SDS011;53057;50.988;6.314;2024-03-08T10:11:56;32.67;;;16.73;;
3949;SDS011;53057;50.988;6.314;2024-03-08T10:14:27;33.43;;;17.00;;
3949;SDS011;53057;50.988;6.314;2024-03-08T10:16:54;35.47;;;15.97;;
3949;SDS011;53057;50.988;6.314;2024-03-08T10:19:22;25.33;;;13.50;;
3949;SDS011;53057;50.988;6.314;2024-03-08T10:21:53;32.00;;;18.03;;
3949;SDS011;53057;50.988;6.314;2024-03-08T10:24:22;37.17;;;16.03;;
3949;SDS011;53057;50.988;6.314;2024-03-08T10:26:53;25.43;;;13.77;;
3949;SDS011;53057;50.988;6.314;2024-03-08T10:29:21;28.03;;;15.13;;
3949;SDS011;53057;50.988;6.314;2024-03-08T10:31:48;31.07;;;16.63;;
3949;SDS011;53057;50.988;6.314;2024-03-08T10:34:17;33.43;;;15.23;;
3949;SDS011;53057;50.988;6.314;2024-03-08T10:36:44;29.73;;;13.37;;
3949;SDS011;53057;50.988;6.314;2024-03-08T10:39:16;32.17;;;14.83;;
3949;SDS011;53057;50.988;6.314;2024-03-08T10:41:52;34.03;;;17.43;;
3949;SDS011;53057;50.988;6.314;2024-03-08T10:44:26;27.87;;;13.30;;
3949;SDS011;53057;50.988;6.314;2024-03-08T10:47:15;36.40;;;16.47;;
3949;SDS011;53057;50.988;6.314;2024-03-08T10:52:17;28.70;;;16.60;;
3949;SDS011;53057;50.988;6.314;2024-03-08T10:54:45;22.10;;;12.07;;
3949;SDS011;53057;50.988;6.314;2024-03-08T10:57:14;22.10;;;12.37;;
3949;SDS011;53057;50.988;6.314;2024-03-08T10:59:43;21.90;;;11.07;;
3949;SDS011;53057;50.988;6.314;2024-03-08T11:02:11;18.17;;;10.07;;
3949;SDS011;53057;50.988;6.314;2024-03-08T11:04:45;16.17;;;9.33;;
3949;SDS011;53057;50.988;6.314;2024-03-08T11:07:12;20.43;;;10.63;;
3949;SDS011;53057;50.988;6.314;2024-03-08T11:09:43;19.97;;;10.50;;
3949;SDS011;53057;50.988;6.314;2024-03-08T11:12:19;21.37;;;12.13;;
3949;SDS011;53057;50.988;6.314;2024-03-08T11:14:51;19.17;;;9.47;;
3949;SDS011;53057;50.988;6.314;2024-03-08T11:17:53;21.27;;;7.07;;
3949;SDS011;53057;50.988;6.314;2024-03-08T11:20:13;21.67;;;11.57;;
3949;SDS011;53057;50.988;6.314;2024-03-08T11:22:53;25.00;;;13.63;;
3949;SDS011;53057;50.988;6.314;2024-03-08T11:25:31;17.20;;;8.63;;
3949;SDS011;53057;50.988;6.314;2024-03-08T11:28:11;18.63;;;9.73;;
3949;SDS011;53057;50.988;6.314;2024-03-08T11:33:15;24.33;;;12.67;;
3949;SDS011;53057;50.988;6.314;2024-03-08T11:35:42;11.53;;;8.90;;
3949;SDS011;53057;50.988;6.314;2024-03-08T11:38:13;23.23;;;12.47;;
3949;SDS011;53057;50.988;6.314;2024-03-08T11:40:40;20.23;;;13.00;;
3949;SDS011;53057;50.988;6.314;2024-03-08T11:43:09;25.10;;;14.27;;
3949;SDS011;53057;50.988;6.314;2024-03-08T11:45:37;18.47;;;8.20;;
3949;SDS011;53057;50.988;6.314;2024-03-08T11:48:05;16.30;;;8.97;;
3949;SDS011;53057;50.988;6.314;2024-03-08T11:50:32;18.07;;;9.30;;
3949;SDS011;53057;50.988;6.314;2024-03-08T11:53:03;18.17;;;10.20;;
3949;SDS011;53057;50.988;6.314;2024-03-08T11:55:31;22.03;;;12.23;;
3949;SDS011;53057;50.988;6.314;2024-03-08T11:58:03;18.00;;;11.20;;
3949;SDS011;53057;50.988;6.314;2024-03-08T12:00:30;22.43;;;11.40;;
3949;SDS011;53057;50.988;6.314;2024-03-08T12:03:03;21.90;;;11.97;;
3949;SDS011;53057;50.988;6.314;2024-03-08T12:05:31;14.00;;;8.33;;
3949;SDS011;53057;50.988;6.314;2024-03-08T12:08:01;24.20;;;15.13;;
3949;SDS011;53057;50.988;6.314;2024-03-08T12:10:30;23.13;;;14.20;;
3949;SDS011;53057;50.988;6.314;2024-03-08T12:12:57;19.57;;;11.47;;
3949;SDS011;53057;50.988;6.314;2024-03-08T12:15:29;21.13;;;10.03;;
3949;SDS011;53057;50.988;6.314;2024-03-08T12:18:00;19.37;;;11.73;;
3949;SDS011;53057;50.988;6.314;2024-03-08T12:20:30;22.77;;;12.30;;
3949;SDS011;53057;50.988;6.314;2024-03-08T12:22:57;19.03;;;9.33;;
3949;SDS011;53057;50.988;6.314;2024-03-08T12:25:27;24.60;;;10.73;;
3949;SDS011;53057;50.988;6.314;2024-03-08T12:28:06;22.70;;;12.17;;
3949;SDS011;53057;50.988;6.314;2024-03-08T12:30:51;17.10;;;10.03;;
3949;SDS011;53057;50.988;6.314;2024-03-08T12:33:21;19.83;;;12.83;;
3949;SDS011;53057;50.988;6.314;2024-03-08T12:35:52;18.43;;;10.87;;
3949;SDS011;53057;50.988;6.314;2024-03-08T12:38:27;17.10;;;9.90;;
3949;SDS011;53057;50.988;6.314;2024-03-08T12:40:55;13.40;;;10.23;;
3949;SDS011;53057;50.988;6.314;2024-03-08T12:43:25;17.83;;;9.00;;
3949;SDS011;53057;50.988;6.314;2024-03-08T12:45:52;29.67;;;9.87;;
3949;SDS011;53057;50.988;6.314;2024-03-08T12:48:19;22.07;;;10.10;;
3949;SDS011;53057;50.988;6.314;2024-03-08T12:50:48;23.70;;;11.10;;
3949;SDS011;53057;50.988;6.314;2024-03-08T12:53:18;22.17;;;14.20;;
3949;SDS011;53057;50.988;6.314;2024-03-08T12:55:47;23.70;;;12.40;;
3949;SDS011;53057;50.988;6.314;2024-03-08T12:58:14;19.90;;;10.87;;
3949;SDS011;53057;50.988;6.314;2024-03-08T13:00:43;19.23;;;10.50;;
3949;SDS011;53057;50.988;6.314;2024-03-08T13:03:10;22.13;;;12.00;;
3949;SDS011;53057;50.988;6.314;2024-03-08T13:05:38;22.50;;;11.40;;
3949;SDS011;53057;50.988;6.314;2024-03-08T13:08:10;18.03;;;11.10;;
3949;SDS011;53057;50.988;6.314;2024-03-08T13:10:40;21.07;;;11.43;;
3949;SDS011;53057;50.988;6.314;2024-03-08T13:13:12;16.40;;;10.13;;
3949;SDS011;53057;50.988;6.314;2024-03-08T13:15:41;19.60;;;10.87;;
3949;SDS011;53057;50.988;6.314;2024-03-08T13:18:09;16.20;;;8.30;;
3949;SDS011;53057;50.988;6.314;2024-03-08T13:20:38;14.80;;;8.33;;
3949;SDS011;53057;50.988;6.314;2024-03-08T13:23:13;23.60;;;10.90;;
3949;SDS011;53057;50.988;6.314;2024-03-08T13:25:41;23.63;;;12.07;;
3949;SDS011;53057;50.988;6.314;2024-03-08T13:28:09;16.43;;;11.67;;
3949;SDS011;53057;50.988;6.314;2024-03-08T13:30:38;21.83;;;13.13;;
3949;SDS011;53057;50.988;6.314;2024-03-08T13:33:05;18.83;;;9.60;;
3949;SDS011;53057;50.988;6.314;2024-03-08T13:35:34;15.37;;;9.93;;
3949;SDS011;53057;50.988;6.314;2024-03-08T13:38:02;17.93;;;10.20;;
3949;SDS011;53057;50.988;6.314;2024-03-08T13:40:36;11.77;;;6.50;;
3949;SDS011;53057;50.988;6.314;2024-03-08T13:43:04;19.60;;;9.23;;
3949;SDS011;53057;50.988;6.314;2024-03-08T13:45:31;18.70;;;7.87;;
3949;SDS011;53057;50.988;6.314;2024-03-08T13:48:01;22.73;;;8.50;;
3949;SDS011;53057;50.988;6.314;2024-03-08T13:50:31;17.73;;;8.63;;
3949;SDS011;53057;50.988;6.314;2024-03-08T13:52:59;19.93;;;7.20;;
3949;SDS011;53057;50.988;6.314;2024-03-08T13:55:26;16.60;;;10.87;;
3949;SDS011;53057;50.988;6.314;2024-03-08T13:57:56;23.50;;;8.97;;
3949;SDS011;53057;50.988;6.314;2024-03-08T14:00:25;16.60;;;9.40;;
3949;SDS011;53057;50.988;6.314;2024-03-08T14:02:54;16.40;;;7.17;;
3949;SDS011;53057;50.988;6.314;2024-03-08T14:05:21;17.13;;;9.47;;
3949;SDS011;53057;50.988;6.314;2024-03-08T14:07:49;10.83;;;6.40;;
3949;SDS011;53057;50.988;6.314;2024-03-08T14:10:17;16.27;;;7.77;;
3949;SDS011;53057;50.988;6.314;2024-03-08T14:12:48;14.57;;;7.37;;
3949;SDS011;53057;50.988;6.314;2024-03-08T14:15:16;11.77;;;7.30;;
3949;SDS011;53057;50.988;6.314;2024-03-08T14:17:44;12.37;;;6.70;;
3949;SDS011;53057;50.988;6.314;2024-03-08T14:20:14;13.23;;;8.53;;
3949;SDS011;53057;50.988;6.314;2024-03-08T14:22:41;16.20;;;8.50;;
3949;SDS011;53057;50.988;6.314;2024-03-08T14:25:09;17.90;;;7.90;;
3949;SDS011;53057;50.988;6.314;2024-03-08T14:27:45;13.50;;;6.17;;
3949;SDS011;53057;50.988;6.314;2024-03-08T14:30:13;12.93;;;8.40;;
3949;SDS011;53057;50.988;6.314;2024-03-08T14:32:41;25.73;;;10.40;;
3949;SDS011;53057;50.988;6.314;2024-03-08T14:35:08;9.80;;;5.90;;
3949;SDS011;53057;50.988;6.314;2024-03-08T14:37:38;16.03;;;9.20;;
3949;SDS011;53057;50.988;6.314;2024-03-08T14:40:05;13.30;;;10.07;;
3949;SDS011;53057;50.988;6.314;2024-03-08T14:42:32;8.10;;;4.93;;
3949;SDS011;53057;50.988;6.314;2024-03-08T14:44:59;14.50;;;8.27;;
3949;SDS011;53057;50.988;6.314;2024-03-08T14:47:27;13.17;;;7.47;;
3949;SDS011;53057;50.988;6.314;2024-03-08T14:49:55;18.03;;;9.50;;